createdAt,value
2019-01-15T00:03:22.247Z,2.50
2019-01-15T00:08:27.256Z,2.60
2019-01-15T00:13:32.256Z,2.60
2019-01-15T00:18:37.252Z,2.80
2019-01-15T00:23:42.273Z,2.80
2019-01-15T00:28:47.284Z,2.80
2019-01-15T00:33:52.319Z,2.80
2019-01-15T00:38:57.340Z,2.90
2019-01-15T00:44:02.351Z,2.90
2019-01-15T00:49:09.180Z,2.90
2019-01-15T00:54:14.153Z,2.90
2019-01-15T00:59:19.694Z,2.90
2019-01-15T01:04:24.699Z,3.00
2019-01-15T01:09:29.765Z,3.00
2019-01-15T01:14:34.767Z,3.00
2019-01-15T01:19:39.785Z,3.00
2019-01-15T01:24:44.788Z,3.00
2019-01-15T01:29:49.788Z,3.00
2019-01-15T01:34:54.795Z,3.10
2019-01-15T01:39:59.799Z,3.10
2019-01-15T01:45:06.682Z,3.10
2019-01-15T01:50:12.662Z,3.20
2019-01-15T01:55:18.072Z,3.30
2019-01-15T02:00:23.132Z,3.40
2019-01-15T02:05:28.135Z,3.50
2019-01-15T02:10:33.199Z,3.60
2019-01-15T02:15:38.224Z,3.60
2019-01-15T02:20:43.238Z,3.70
2019-01-15T02:25:48.306Z,3.70
2019-01-15T02:30:53.310Z,3.70
2019-01-15T02:35:58.306Z,3.80
2019-01-15T02:41:03.326Z,3.80
2019-01-15T02:46:08.324Z,3.90
2019-01-15T02:51:13.353Z,3.90
2019-01-15T02:56:18.576Z,3.90
2019-01-15T03:01:23.590Z,3.90
2019-01-15T03:06:28.676Z,4.00
2019-01-15T03:11:33.723Z,4.00
2019-01-15T03:16:38.734Z,4.00
2019-01-15T03:21:43.738Z,4.00
2019-01-15T03:26:48.767Z,4.00
2019-01-15T03:31:53.819Z,4.00
2019-01-15T03:36:58.852Z,4.00
2019-01-15T03:42:03.864Z,3.90
2019-01-15T03:47:09.127Z,3.90
2019-01-15T03:52:14.154Z,4.00
2019-01-15T03:57:19.157Z,4.10
2019-01-15T04:02:24.155Z,4.20
2019-01-15T04:07:29.471Z,4.30
2019-01-15T04:12:34.463Z,4.40
2019-01-15T04:17:39.807Z,4.40
2019-01-15T04:22:44.805Z,4.50
2019-01-15T04:27:49.846Z,4.40
2019-01-15T04:32:54.993Z,4.40
2019-01-15T04:38:00.259Z,4.30
2019-01-15T04:43:05.258Z,4.30
2019-01-15T04:48:10.639Z,4.40
2019-01-15T04:53:15.947Z,4.40
2019-01-15T04:58:20.933Z,4.40
2019-01-15T05:03:25.961Z,4.40
2019-01-15T05:08:30.975Z,4.40
2019-01-15T05:13:35.979Z,4.40
2019-01-15T05:18:41.000Z,4.50
2019-01-15T05:23:46.008Z,4.60
2019-01-15T05:28:51.066Z,4.60
2019-01-15T05:33:56.057Z,4.60
2019-01-15T05:39:01.100Z,4.70
2019-01-15T05:44:06.928Z,4.70
2019-01-15T05:49:12.387Z,4.80
2019-01-15T05:54:17.720Z,4.80
2019-01-15T05:59:22.737Z,4.90
2019-01-15T06:04:27.745Z,5.00
2019-01-15T06:09:32.763Z,5.00
2019-01-15T06:14:37.807Z,5.10
2019-01-15T06:19:42.855Z,5.20
2019-01-15T06:24:47.853Z,5.20
2019-01-15T06:29:52.852Z,5.20
2019-01-15T06:34:57.849Z,5.30
2019-01-15T06:40:02.904Z,5.30
2019-01-15T06:45:12.446Z,5.20
2019-01-15T06:50:17.546Z,5.20
2019-01-15T06:55:22.564Z,5.10
2019-01-15T07:00:28.579Z,5.10
2019-01-15T07:05:36.657Z,5.20
2019-01-15T07:10:41.657Z,5.30
2019-01-15T07:15:46.693Z,5.30
2019-01-15T07:20:51.793Z,5.40
2019-01-15T07:25:56.801Z,5.40
2019-01-15T07:31:02.143Z,5.50
2019-01-15T07:36:07.167Z,5.60
2019-01-15T07:41:12.183Z,5.60
2019-01-15T07:46:17.200Z,5.70
2019-01-15T07:51:22.230Z,5.70
2019-01-15T07:56:27.502Z,5.70
2019-01-15T08:01:32.548Z,5.70
2019-01-15T08:06:37.549Z,5.80
2019-01-15T08:11:42.704Z,5.80
2019-01-15T08:16:47.720Z,5.80
2019-01-15T08:21:52.792Z,5.90
2019-01-15T08:26:57.823Z,5.90
2019-01-15T08:32:02.940Z,6.00
2019-01-15T08:37:08.255Z,6.00
2019-01-15T08:42:13.267Z,6.00
2019-01-15T08:47:19.980Z,6.00
2019-01-15T08:52:25.000Z,6.00
2019-01-15T08:57:30.011Z,6.00
2019-01-15T09:02:35.020Z,6.00
2019-01-15T09:07:40.027Z,6.00
2019-01-15T09:12:45.252Z,6.00
2019-01-15T09:17:53.876Z,6.00
2019-01-15T09:22:58.876Z,6.00
2019-01-15T09:28:03.995Z,6.10
2019-01-15T09:33:09.304Z,6.20
2019-01-15T09:38:14.812Z,6.20
2019-01-15T09:43:19.820Z,6.30
2019-01-15T09:48:28.159Z,6.40
2019-01-15T09:53:33.181Z,6.40
2019-01-15T09:58:40.012Z,6.40
2019-01-15T10:03:45.021Z,6.50
2019-01-15T10:08:50.036Z,6.40
2019-01-15T10:13:55.108Z,6.50
2019-01-15T10:19:00.126Z,6.60
2019-01-15T10:24:05.537Z,6.70
2019-01-15T10:29:10.553Z,6.70
2019-01-15T10:34:21.740Z,6.80
2019-01-15T10:39:26.786Z,6.90
2019-01-15T10:44:32.208Z,7.00
2019-01-15T10:49:37.583Z,7.00
2019-01-15T10:54:42.604Z,7.20
2019-01-15T10:59:47.676Z,7.20
2019-01-15T11:04:52.684Z,7.30
2019-01-15T11:09:57.684Z,7.40
2019-01-15T11:15:02.693Z,7.60
2019-01-15T11:20:09.920Z,7.60
2019-01-15T11:25:15.328Z,7.60
2019-01-15T11:30:20.422Z,7.60
2019-01-15T11:35:25.483Z,7.60
2019-01-15T11:40:30.535Z,7.50
2019-01-15T11:45:35.536Z,7.60
2019-01-15T11:50:40.533Z,7.60
2019-01-15T11:55:45.525Z,7.70
2019-01-15T12:00:57.146Z,7.80
2019-01-15T12:06:13.993Z,7.80
2019-01-15T12:11:40.739Z,7.70
2019-01-15T12:17:01.891Z,7.70
2019-01-15T12:22:22.891Z,7.70
2019-01-15T12:27:45.432Z,7.70
2019-01-15T12:33:08.127Z,7.70
2019-01-15T12:38:25.180Z,7.70
2019-01-15T12:43:49.164Z,7.70
2019-01-15T12:49:19.173Z,7.80
2019-01-15T12:54:43.153Z,7.80
2019-01-15T13:00:05.860Z,7.80
2019-01-15T13:05:28.602Z,7.80
2019-01-15T13:10:55.623Z,7.80
2019-01-15T13:16:19.575Z,7.80
2019-01-15T13:21:43.549Z,7.90
2019-01-15T13:27:07.607Z,7.90
2019-01-15T13:32:26.075Z,8.00
2019-01-15T13:37:51.399Z,8.00
2019-01-15T13:43:14.003Z,8.10
2019-01-15T13:48:28.848Z,8.00
2019-01-15T13:53:58.775Z,8.00
2019-01-15T13:59:23.189Z,8.00
2019-01-15T14:04:50.018Z,8.00
2019-01-15T14:10:13.980Z,8.00
2019-01-15T14:15:40.987Z,7.90
2019-01-15T14:21:23.250Z,7.90
2019-01-15T14:26:45.204Z,8.00
2019-01-15T14:32:12.053Z,7.90
2019-01-15T14:37:42.203Z,7.90
2019-01-15T14:43:05.232Z,7.80
2019-01-15T14:48:39.413Z,7.70
2019-01-15T14:54:09.411Z,7.50
2019-01-15T14:59:48.433Z,7.40
2019-01-15T15:05:27.741Z,7.20
2019-01-15T15:10:50.555Z,7.20
2019-01-15T15:16:17.312Z,7.10
2019-01-15T15:21:40.154Z,7.10
2019-01-15T15:27:02.727Z,7.10
2019-01-15T15:32:35.758Z,7.10
2019-01-15T15:37:58.515Z,7.10
2019-01-15T15:43:22.463Z,7.00
2019-01-15T15:48:45.261Z,7.00
2019-01-15T15:54:21.531Z,6.90
2019-01-15T15:59:36.041Z,6.90
2019-01-15T16:05:06.073Z,6.90
2019-01-15T16:10:29.876Z,6.90
2019-01-15T16:16:02.664Z,6.90
2019-01-15T16:21:35.593Z,6.90
2019-01-15T16:27:14.852Z,6.90
2019-01-15T16:32:33.810Z,6.90
2019-01-15T16:38:01.062Z,6.90
2019-01-15T16:43:31.499Z,6.90
2019-01-15T16:49:01.348Z,6.90
2019-01-15T16:54:37.114Z,6.90
2019-01-15T17:00:06.915Z,6.90
2019-01-15T17:05:30.316Z,6.90
2019-01-15T17:10:51.104Z,6.90
2019-01-15T17:16:33.662Z,6.90
2019-01-15T17:21:59.567Z,6.90
2019-01-15T17:27:22.479Z,6.90
2019-01-15T17:32:49.427Z,6.90
2019-01-15T17:38:16.164Z,6.90
2019-01-15T17:43:39.009Z,6.90
2019-01-15T17:49:01.310Z,6.90
2019-01-15T17:54:20.077Z,6.90
2019-01-15T17:59:42.708Z,6.90
2019-01-15T18:05:08.739Z,6.90
2019-01-15T18:10:35.686Z,6.90
2019-01-15T18:15:59.961Z,6.90
2019-01-15T18:21:24.195Z,6.90
2019-01-15T18:26:48.175Z,6.90
2019-01-15T18:32:15.182Z,6.90
2019-01-15T18:37:48.092Z,6.90
2019-01-15T18:43:12.029Z,6.90
2019-01-15T18:48:27.615Z,6.90
2019-01-15T18:54:00.608Z,6.90
2019-01-15T18:59:21.056Z,6.90
2019-01-15T19:04:53.767Z,6.90
2019-01-15T19:10:23.712Z,7.00
2019-01-15T19:15:59.664Z,6.90
2019-01-15T19:21:29.494Z,6.90
2019-01-15T19:26:56.475Z,7.00
2019-01-15T19:32:19.060Z,7.00
2019-01-15T19:37:33.113Z,7.00
2019-01-15T19:42:55.646Z,6.90
2019-01-15T19:48:21.372Z,6.90
2019-01-15T19:53:51.237Z,6.90
2019-01-15T19:59:10.396Z,7.00
2019-01-15T20:04:34.327Z,6.90
2019-01-15T20:09:56.967Z,7.00
2019-01-15T20:15:27.192Z,7.00
2019-01-15T20:20:54.308Z,7.00
2019-01-15T20:26:13.883Z,7.00
2019-01-15T20:31:39.965Z,7.10
2019-01-15T20:36:53.897Z,7.10
2019-01-15T20:42:09.311Z,7.10
2019-01-15T20:47:32.333Z,7.10
2019-01-15T20:52:56.268Z,7.10
2019-01-15T20:58:26.700Z,7.00
2019-01-15T21:03:48.568Z,7.00
2019-01-15T21:09:18.605Z,7.00
2019-01-15T21:14:51.503Z,7.00
2019-01-15T21:20:33.880Z,7.00
2019-01-15T21:26:01.040Z,7.00
2019-01-15T21:31:23.733Z,7.00
2019-01-15T21:37:06.084Z,7.00
2019-01-15T21:42:28.690Z,7.10
2019-01-15T21:47:52.665Z,7.10
2019-01-15T21:53:23.845Z,7.10
2019-01-15T21:58:55.084Z,7.00
2019-01-15T22:04:21.995Z,7.10
2019-01-15T22:09:45.988Z,7.10
2019-01-15T22:15:15.291Z,7.10
2019-01-15T22:20:37.975Z,7.00
2019-01-15T22:26:07.837Z,7.00
2019-01-15T22:31:37.724Z,7.00
2019-01-15T22:37:10.924Z,7.00
2019-01-15T22:42:46.758Z,7.00
2019-01-15T22:48:25.792Z,7.00
2019-01-15T22:54:04.771Z,7.00
2019-01-15T22:59:25.849Z,7.00
2019-01-15T23:04:49.801Z,7.00
2019-01-15T23:10:19.880Z,7.10
2019-01-15T23:15:44.545Z,7.10
2019-01-15T23:21:08.439Z,7.10
2019-01-15T23:26:36.600Z,7.10
2019-01-15T23:32:04.377Z,7.10
2019-01-15T23:37:32.151Z,7.20
2019-01-15T23:42:59.365Z,7.20
2019-01-15T23:48:32.619Z,7.10
2019-01-15T23:53:57.968Z,7.20
2019-01-15T23:59:23.419Z,7.20
